createdAt,value
2023-04-08T00:00:09.908Z,5.00
2023-04-08T00:02:39.020Z,5.00
2023-04-08T00:05:09.372Z,4.90
2023-04-08T00:07:38.982Z,4.90
2023-04-08T00:10:11.149Z,4.90
2023-04-08T00:12:40.389Z,4.90
2023-04-08T00:15:10.224Z,5.00
2023-04-08T00:17:39.163Z,5.00
2023-04-08T00:20:09.659Z,4.80
2023-04-08T00:22:38.686Z,4.60
2023-04-08T00:25:10.795Z,4.50
2023-04-08T00:27:40.099Z,4.30
2023-04-08T00:30:10.242Z,4.10
2023-04-08T00:32:39.453Z,3.90
2023-04-08T00:35:09.332Z,4.00
2023-04-08T00:37:38.153Z,4.10
2023-04-08T00:40:09.963Z,4.30
2023-04-08T00:42:38.915Z,4.40
2023-04-08T00:45:09.727Z,4.50
2023-04-08T00:47:39.589Z,4.50
2023-04-08T00:50:11.627Z,4.50
2023-04-08T00:52:40.646Z,4.40
2023-04-08T00:55:11.543Z,4.30
2023-04-08T00:57:40.750Z,4.10
2023-04-08T01:00:12.159Z,3.90
2023-04-08T01:02:49.320Z,3.70
2023-04-08T01:05:32.046Z,3.60
2023-04-08T01:08:06.838Z,3.50
2023-04-08T01:10:43.091Z,3.50
2023-04-08T01:13:19.726Z,3.50
2023-04-08T01:15:50.698Z,3.50
2023-04-08T01:18:21.955Z,3.40
2023-04-08T01:20:55.880Z,3.40
2023-04-08T01:23:34.557Z,3.50
2023-04-08T01:26:05.334Z,3.80
2023-04-08T01:28:36.586Z,3.90
2023-04-08T01:31:06.093Z,3.80
2023-04-08T01:33:36.141Z,3.60
2023-04-08T01:36:07.589Z,3.40
2023-04-08T01:38:38.013Z,3.40
2023-04-08T01:41:11.906Z,3.40
2023-04-08T01:43:44.044Z,3.50
2023-04-08T01:46:15.041Z,3.50
2023-04-08T01:48:46.082Z,3.50
2023-04-08T01:51:18.096Z,3.60
2023-04-08T01:53:51.414Z,3.50
2023-04-08T01:56:25.603Z,3.60
2023-04-08T01:58:58.721Z,3.50
2023-04-08T02:01:31.100Z,3.30
2023-04-08T02:04:03.188Z,3.30
2023-04-08T02:06:34.008Z,3.30
2023-04-08T02:09:04.624Z,3.40
2023-04-08T02:11:35.221Z,3.50
2023-04-08T02:14:04.458Z,3.60
2023-04-08T02:16:42.762Z,3.70
2023-04-08T02:19:19.813Z,3.70
2023-04-08T02:21:57.049Z,3.80
2023-04-08T02:24:27.922Z,3.90
2023-04-08T02:26:59.808Z,3.90
2023-04-08T02:29:32.799Z,3.90
2023-04-08T02:32:05.513Z,3.90
2023-04-08T02:34:36.409Z,4.00
2023-04-08T02:37:05.529Z,4.00
2023-04-08T02:39:34.760Z,4.00
2023-04-08T02:42:06.617Z,4.10
2023-04-08T02:44:35.645Z,4.10
2023-04-08T02:47:05.389Z,4.00
2023-04-08T02:49:34.325Z,4.00
2023-04-08T02:52:03.560Z,4.10
2023-04-08T02:54:32.691Z,4.10
2023-04-08T02:57:01.550Z,4.00
2023-04-08T02:59:31.819Z,3.90
2023-04-08T03:02:00.936Z,3.90
2023-04-08T03:04:30.021Z,3.90
2023-04-08T03:06:58.947Z,4.00
2023-04-08T03:09:28.141Z,3.80
2023-04-08T03:11:57.200Z,3.80
2023-04-08T03:14:27.017Z,3.80
2023-04-08T03:17:00.693Z,3.80
2023-04-08T03:19:29.920Z,3.80
2023-04-08T03:21:58.823Z,3.90
2023-04-08T03:24:27.742Z,3.80
2023-04-08T03:26:56.721Z,3.70
2023-04-08T03:29:25.661Z,3.80
2023-04-08T03:31:55.018Z,3.80
2023-04-08T03:34:25.414Z,3.90
2023-04-08T03:36:54.512Z,4.00
2023-04-08T03:39:23.723Z,4.00
2023-04-08T03:41:52.646Z,3.80
2023-04-08T03:44:21.536Z,3.80
2023-04-08T03:46:50.313Z,3.90
2023-04-08T03:49:19.303Z,3.90
2023-04-08T03:51:49.572Z,3.90
2023-04-08T03:54:18.544Z,3.90
2023-04-08T03:56:47.629Z,3.90
2023-04-08T03:59:16.615Z,3.90
2023-04-08T04:01:46.562Z,3.80
2023-04-08T04:04:16.536Z,3.80
2023-04-08T04:06:45.734Z,3.80
2023-04-08T04:09:17.076Z,3.80
2023-04-08T04:11:46.314Z,3.70
2023-04-08T04:14:15.128Z,3.70
2023-04-08T04:16:44.038Z,3.70
2023-04-08T04:19:13.032Z,3.80
2023-04-08T04:21:42.269Z,3.70
2023-04-08T04:24:14.780Z,3.70
2023-04-08T04:26:45.173Z,3.60
2023-04-08T04:29:14.019Z,3.70
2023-04-08T04:31:42.881Z,3.80
2023-04-08T04:34:11.757Z,3.60
2023-04-08T04:36:40.625Z,3.50
2023-04-08T04:39:09.507Z,3.40
2023-04-08T04:41:40.745Z,3.30
2023-04-08T04:44:11.485Z,3.20
2023-04-08T04:46:41.028Z,3.10
2023-04-08T04:49:12.846Z,3.20
2023-04-08T04:51:41.833Z,3.20
2023-04-08T04:54:10.837Z,3.30
2023-04-08T04:56:39.737Z,3.40
2023-04-08T04:59:08.851Z,3.50
2023-04-08T05:01:41.089Z,3.60
2023-04-08T05:04:10.242Z,3.60
2023-04-08T05:06:39.009Z,3.70
2023-04-08T05:09:08.131Z,3.60
2023-04-08T05:11:37.819Z,3.60
2023-04-08T05:14:09.733Z,3.40
2023-04-08T05:16:40.807Z,3.30
2023-04-08T05:19:09.748Z,3.20
2023-04-08T05:21:38.759Z,3.30
2023-04-08T05:24:10.735Z,3.10
2023-04-08T05:26:39.879Z,3.10
2023-04-08T05:29:08.860Z,3.00
2023-04-08T05:31:37.906Z,3.20
2023-04-08T05:34:08.719Z,3.20
2023-04-08T05:36:37.921Z,3.30
2023-04-08T05:39:06.911Z,3.20
2023-04-08T05:41:35.928Z,3.10
2023-04-08T05:44:04.853Z,3.00
2023-04-08T05:46:33.819Z,3.10
2023-04-08T05:49:02.813Z,3.10
2023-04-08T05:51:36.123Z,3.20
2023-04-08T05:54:05.443Z,3.20
2023-04-08T05:56:35.080Z,3.20
2023-04-08T05:59:04.152Z,3.20
2023-04-08T06:01:34.324Z,3.10
2023-04-08T06:04:03.575Z,3.10
2023-04-08T06:06:34.306Z,3.10
2023-04-08T06:09:03.186Z,3.10
2023-04-08T06:11:32.206Z,3.00
2023-04-08T06:14:01.014Z,3.10
2023-04-08T06:16:30.154Z,3.20
2023-04-08T06:18:59.129Z,3.10
2023-04-08T06:21:28.360Z,3.30
2023-04-08T06:23:59.068Z,3.30
2023-04-08T06:26:28.605Z,3.30
2023-04-08T06:28:57.655Z,3.20
2023-04-08T06:31:26.650Z,3.20
2023-04-08T06:33:56.074Z,3.20
2023-04-08T06:36:25.052Z,3.30
2023-04-08T06:38:54.035Z,3.30
2023-04-08T06:41:27.125Z,3.40
2023-04-08T06:43:56.161Z,3.50
2023-04-08T06:46:25.761Z,3.40
2023-04-08T06:48:55.711Z,3.40
2023-04-08T06:51:24.479Z,3.60
2023-04-08T06:53:53.623Z,3.70
2023-04-08T06:56:26.278Z,3.60
2023-04-08T06:58:55.195Z,3.60
2023-04-08T07:01:25.150Z,3.60
2023-04-08T07:03:54.271Z,3.70
2023-04-08T07:06:23.618Z,3.80
2023-04-08T07:08:52.560Z,3.90
2023-04-08T07:11:21.405Z,3.80
2023-04-08T07:13:52.576Z,3.90
2023-04-08T07:16:21.616Z,3.90
2023-04-08T07:18:52.107Z,4.10
2023-04-08T07:21:21.314Z,4.00
2023-04-08T07:23:50.502Z,4.10
2023-04-08T07:26:19.799Z,4.10
2023-04-08T07:28:51.574Z,4.10
2023-04-08T07:31:21.244Z,4.10
2023-04-08T07:33:50.180Z,4.20
2023-04-08T07:36:19.081Z,4.10
2023-04-08T07:38:48.186Z,4.00
2023-04-08T07:41:17.551Z,4.00
2023-04-08T07:43:46.688Z,4.10
2023-04-08T07:46:16.959Z,4.20
2023-04-08T07:48:46.171Z,4.20
2023-04-08T07:51:15.144Z,4.30
2023-04-08T07:53:44.821Z,4.30
2023-04-08T07:56:15.607Z,4.30
2023-04-08T07:58:44.879Z,4.10
2023-04-08T08:01:20.235Z,4.10
2023-04-08T08:03:53.236Z,4.00
2023-04-08T08:06:23.169Z,3.90
2023-04-08T08:08:52.218Z,4.00
2023-04-08T08:11:21.606Z,4.00
2023-04-08T08:13:50.765Z,4.10
2023-04-08T08:16:21.871Z,4.20
2023-04-08T08:18:51.023Z,4.10
2023-04-08T08:21:20.171Z,4.10
2023-04-08T08:23:49.179Z,4.20
2023-04-08T08:26:18.434Z,4.10
2023-04-08T08:28:47.382Z,4.10
2023-04-08T08:31:16.363Z,4.20
2023-04-08T08:33:47.545Z,4.10
2023-04-08T08:36:16.618Z,4.20
2023-04-08T08:38:45.587Z,4.20
2023-04-08T08:41:14.395Z,4.50
2023-04-08T08:43:45.263Z,4.50
2023-04-08T08:46:19.424Z,4.50
2023-04-08T08:48:50.010Z,4.40
2023-04-08T08:51:19.243Z,4.40
2023-04-08T08:53:48.329Z,4.30
2023-04-08T08:56:18.964Z,4.30
2023-04-08T08:58:49.244Z,4.30
2023-04-08T09:01:38.781Z,4.40
2023-04-08T09:04:19.483Z,4.50
2023-04-08T09:06:50.360Z,4.60
2023-04-08T09:09:22.865Z,4.60
2023-04-08T09:12:04.980Z,4.30
2023-04-08T09:14:35.002Z,4.30
2023-04-08T09:31:25.215Z,4.50
2023-04-08T09:33:56.807Z,4.40
2023-04-08T09:36:26.720Z,4.30
2023-04-08T09:38:56.197Z,4.30
2023-04-08T09:41:28.112Z,4.30
2023-04-08T09:43:58.890Z,4.50
2023-04-08T09:46:59.753Z,4.50
2023-04-08T09:49:31.386Z,4.60
2023-04-08T09:52:09.455Z,4.70
2023-04-08T09:54:51.283Z,4.70
2023-04-08T09:57:30.107Z,4.70
2023-04-08T10:00:06.833Z,4.70
2023-04-08T10:02:54.388Z,4.60
2023-04-08T10:05:25.491Z,4.70
2023-04-08T10:07:57.003Z,4.70
2023-04-08T10:10:27.466Z,4.90
2023-04-08T10:12:56.829Z,5.00
2023-04-08T10:15:30.134Z,5.00
2023-04-08T10:18:34.069Z,5.20
2023-04-08T10:21:03.721Z,5.40
2023-04-08T10:23:59.834Z,5.40
2023-04-08T10:26:43.353Z,5.40
2023-04-08T10:29:46.467Z,5.40
2023-04-08T10:32:42.222Z,5.30
2023-04-08T10:35:12.578Z,5.20
2023-04-08T10:37:41.239Z,5.30
2023-04-08T10:40:20.964Z,5.40
2023-04-08T10:42:56.107Z,5.50
2023-04-08T10:45:25.712Z,5.40
2023-04-08T10:47:54.457Z,5.40
2023-04-08T10:50:24.803Z,5.30
2023-04-08T10:52:55.714Z,5.30
2023-04-08T10:55:25.628Z,5.30
2023-04-08T10:57:56.448Z,5.30
2023-04-08T11:00:36.027Z,5.40
2023-04-08T11:03:06.268Z,5.50
2023-04-08T11:05:38.263Z,5.50
2023-04-08T11:08:07.999Z,5.50
2023-04-08T11:10:40.372Z,5.50
2023-04-08T11:13:10.971Z,5.50
2023-04-08T11:15:39.973Z,5.60
2023-04-08T11:18:10.032Z,5.60
2023-04-08T11:20:40.440Z,5.60
2023-04-08T11:23:15.324Z,5.50
2023-04-08T11:25:45.326Z,5.60
2023-04-08T11:28:14.684Z,5.60
2023-04-08T11:30:44.573Z,5.60
2023-04-08T11:33:15.428Z,5.70
2023-04-08T11:35:46.224Z,5.70
2023-04-08T11:38:14.981Z,5.70
2023-04-08T11:40:55.503Z,5.70
2023-04-08T11:43:24.682Z,5.90
2023-04-08T11:45:53.690Z,5.90
2023-04-08T11:48:23.899Z,6.00
2023-04-08T11:51:06.153Z,6.20
2023-04-08T11:53:35.654Z,6.30
2023-04-08T11:56:18.745Z,6.60
2023-04-08T11:58:47.958Z,6.80
2023-04-08T12:01:16.837Z,6.70
2023-04-08T12:04:03.179Z,6.60
2023-04-08T12:06:33.347Z,6.50
2023-04-08T12:09:02.048Z,6.60
2023-04-08T12:11:30.837Z,6.40
2023-04-08T12:13:59.549Z,6.40
2023-04-08T12:16:28.344Z,6.50
2023-04-08T12:18:57.083Z,6.50
2023-04-08T12:21:25.807Z,6.70
2023-04-08T12:23:56.082Z,6.70
2023-04-08T12:26:24.821Z,6.60
2023-04-08T12:28:53.703Z,6.50
2023-04-08T12:31:23.408Z,6.60
2023-04-08T12:33:52.350Z,6.60
2023-04-08T12:36:21.177Z,6.70
2023-04-08T12:38:50.138Z,6.80
2023-04-08T12:41:20.445Z,6.90
2023-04-08T12:43:49.067Z,6.90
2023-04-08T12:46:17.840Z,6.80
2023-04-08T12:48:48.543Z,6.70
2023-04-08T12:51:18.494Z,6.70
2023-04-08T12:53:47.575Z,6.70
2023-04-08T12:56:16.294Z,6.90
2023-04-08T12:58:46.381Z,7.00
2023-04-08T13:01:15.050Z,7.00
2023-04-08T13:03:46.867Z,7.00
2023-04-08T13:06:16.208Z,7.20
2023-04-08T13:08:44.989Z,7.20
2023-04-08T13:11:13.834Z,7.20
2023-04-08T13:13:42.494Z,7.50
2023-04-08T13:16:12.625Z,7.50
2023-04-08T13:18:42.008Z,7.30
2023-04-08T13:21:11.400Z,7.30
2023-04-08T13:23:40.255Z,7.50
2023-04-08T13:26:08.914Z,7.50
2023-04-08T13:28:49.732Z,7.40
2023-04-08T13:31:27.513Z,7.30
2023-04-08T13:33:58.158Z,7.30
2023-04-08T13:36:28.949Z,7.30
2023-04-08T13:38:57.922Z,7.20
2023-04-08T13:41:28.254Z,7.20
2023-04-08T13:43:57.008Z,7.10
2023-04-08T13:46:27.196Z,6.90
2023-04-08T13:48:55.870Z,6.80
2023-04-08T13:51:24.641Z,6.90
2023-04-08T13:53:53.323Z,6.80
2023-04-08T13:56:22.409Z,6.70
2023-04-08T13:58:57.148Z,6.60
2023-04-08T14:01:28.225Z,6.60
2023-04-08T14:03:57.066Z,6.50
2023-04-08T14:06:26.712Z,6.50
2023-04-08T14:08:55.387Z,6.70
2023-04-08T14:11:24.033Z,6.70
2023-04-08T14:13:52.844Z,6.90
2023-04-08T14:16:21.716Z,7.00
2023-04-08T14:18:52.200Z,6.90
2023-04-08T14:21:21.405Z,6.90
2023-04-08T14:23:50.057Z,6.90
2023-04-08T14:26:18.804Z,6.90
2023-04-08T14:28:47.717Z,7.00
2023-04-08T14:31:16.922Z,7.10
2023-04-08T14:33:45.750Z,7.10
2023-04-08T14:36:15.969Z,7.20
2023-04-08T14:38:44.741Z,7.30
2023-04-08T14:41:13.519Z,7.20
2023-04-08T14:43:42.259Z,7.40
2023-04-08T14:46:11.043Z,7.50
2023-04-08T14:48:40.042Z,7.50
2023-04-08T14:51:08.892Z,7.50
2023-04-08T14:53:38.964Z,7.50
2023-04-08T14:56:10.141Z,7.50
2023-04-08T14:58:38.864Z,7.60
2023-04-08T15:01:07.575Z,7.60
2023-04-08T15:03:36.380Z,7.60
2023-04-08T15:06:06.589Z,7.60
2023-04-08T15:08:36.126Z,7.50
2023-04-08T15:11:06.413Z,7.40
2023-04-08T15:13:36.133Z,7.60
2023-04-08T15:16:04.897Z,7.50
2023-04-08T15:18:33.638Z,7.40
2023-04-08T15:21:02.361Z,7.40
2023-04-08T15:23:31.179Z,7.50
2023-04-08T15:26:00.035Z,7.60
2023-04-08T15:28:30.198Z,7.60
2023-04-08T15:30:58.887Z,7.70
2023-04-08T15:33:27.876Z,7.60
2023-04-08T15:35:57.579Z,7.50
2023-04-08T15:38:27.271Z,7.50
2023-04-08T15:40:55.902Z,7.50
2023-04-08T15:43:24.696Z,7.50
2023-04-08T15:45:55.528Z,7.50
2023-04-08T15:48:24.197Z,7.50
2023-04-08T15:50:53.650Z,7.60
2023-04-08T15:53:22.457Z,7.50
2023-04-08T15:55:51.632Z,7.50
2023-04-08T15:58:20.459Z,7.50
2023-04-08T16:00:49.544Z,7.50
2023-04-08T16:03:19.880Z,7.50
2023-04-08T16:05:48.867Z,7.50
2023-04-08T16:08:18.277Z,7.50
2023-04-08T16:10:47.169Z,7.50
2023-04-08T16:13:15.871Z,7.50
2023-04-08T16:15:45.274Z,7.50
2023-04-08T16:18:14.019Z,7.40
2023-04-08T16:20:44.024Z,7.40
2023-04-08T16:23:15.610Z,7.40
2023-04-08T16:25:44.282Z,7.30
2023-04-08T16:28:13.393Z,7.30
2023-04-08T16:30:44.133Z,7.40
2023-04-08T16:33:13.147Z,7.40
2023-04-08T16:35:43.361Z,7.40
2023-04-08T16:38:12.338Z,7.30
2023-04-08T16:40:40.973Z,7.30
2023-04-08T16:43:09.673Z,7.30
2023-04-08T16:45:39.194Z,7.30
2023-04-08T16:48:07.986Z,7.20
2023-04-08T16:50:39.149Z,7.20
2023-04-08T16:53:09.195Z,7.10
2023-04-08T16:55:38.248Z,7.10
2023-04-08T16:58:07.182Z,7.10
2023-04-08T17:00:36.456Z,7.10
2023-04-08T17:03:05.746Z,7.00
2023-04-08T17:05:34.559Z,7.20
2023-04-08T17:08:03.551Z,7.10
2023-04-08T17:10:33.822Z,7.00
2023-04-08T17:13:05.584Z,7.00
2023-04-08T17:15:37.898Z,6.90
2023-04-08T17:18:07.266Z,6.90
2023-04-08T17:20:36.184Z,6.90
2023-04-08T17:23:04.888Z,6.80
2023-04-08T17:25:35.557Z,6.80
2023-04-08T17:28:04.303Z,6.80
2023-04-08T17:30:32.918Z,6.80
2023-04-08T17:33:01.804Z,6.80
2023-04-08T17:35:30.904Z,6.70
2023-04-08T17:37:59.590Z,6.70
2023-04-08T17:40:28.315Z,6.70
2023-04-08T17:42:58.643Z,6.70
2023-04-08T17:45:27.599Z,6.70
2023-04-08T17:47:56.361Z,6.70
2023-04-08T17:50:25.284Z,6.70
2023-04-08T17:52:53.964Z,6.70
2023-04-08T17:55:22.934Z,6.70
2023-04-08T17:57:52.275Z,6.70
2023-04-08T18:00:22.581Z,6.70
2023-04-08T18:02:51.805Z,6.70
2023-04-08T18:05:20.735Z,6.70
2023-04-08T18:07:49.487Z,6.70
2023-04-08T18:10:18.584Z,6.70
2023-04-08T18:12:48.993Z,6.70
2023-04-08T18:15:18.474Z,6.60
2023-04-08T18:17:48.666Z,6.60
2023-04-08T18:20:17.481Z,6.60
2023-04-08T18:22:46.300Z,6.60
2023-04-08T18:25:15.117Z,6.60
2023-04-08T18:27:43.750Z,6.60
2023-04-08T18:30:13.083Z,6.60
2023-04-08T18:32:41.851Z,6.60
2023-04-08T18:35:12.228Z,6.60
2023-04-08T18:37:41.404Z,6.60
2023-04-08T18:40:11.475Z,6.60
2023-04-08T18:42:40.871Z,6.60
2023-04-08T18:45:10.292Z,6.60
2023-04-08T18:47:39.042Z,6.60
2023-04-08T18:50:08.754Z,6.50
2023-04-08T18:52:39.055Z,6.50
2023-04-08T18:55:08.312Z,6.50
2023-04-08T18:57:37.129Z,6.50
2023-04-08T19:00:07.057Z,6.60
2023-04-08T19:02:35.860Z,6.50
2023-04-08T19:05:04.833Z,6.40
2023-04-08T19:07:34.315Z,6.40
2023-04-08T19:10:04.500Z,6.40
2023-04-08T19:12:33.182Z,6.50
2023-04-08T19:15:04.026Z,6.50
2023-04-08T19:17:32.889Z,6.50
2023-04-08T19:20:03.216Z,6.50
2023-04-08T19:22:32.121Z,6.50
2023-04-08T19:25:00.888Z,6.50
2023-04-08T19:27:31.984Z,6.40
2023-04-08T19:30:00.893Z,6.50
2023-04-08T19:32:29.833Z,6.50
2023-04-08T19:34:58.442Z,6.50
2023-04-08T19:37:27.260Z,6.50
2023-04-08T19:39:55.960Z,6.50
2023-04-08T19:42:24.691Z,6.50
2023-04-08T19:44:55.236Z,6.40
2023-04-08T19:47:23.979Z,6.40
2023-04-08T19:49:52.728Z,6.40
2023-04-08T19:52:21.734Z,6.40
2023-04-08T19:54:51.694Z,6.40
2023-04-08T19:57:20.718Z,6.40
2023-04-08T19:59:49.794Z,6.40
2023-04-08T20:02:20.103Z,6.30
2023-04-08T20:04:48.887Z,6.30
2023-04-08T20:07:17.774Z,6.40
2023-04-08T20:09:46.511Z,6.30
2023-04-08T20:12:15.425Z,6.30
2023-04-08T20:14:45.115Z,6.30
2023-04-08T20:17:15.603Z,6.20
2023-04-08T20:19:45.796Z,6.20
2023-04-08T20:22:14.498Z,6.20
2023-04-08T20:24:43.216Z,6.20
2023-04-08T20:27:12.224Z,6.20
2023-04-08T20:29:41.977Z,6.20
2023-04-08T20:32:10.824Z,6.20
2023-04-08T20:34:39.454Z,6.00
2023-04-08T20:37:09.543Z,6.00
2023-04-08T20:39:38.485Z,6.00
2023-04-08T20:42:09.421Z,6.10
2023-04-08T20:44:38.140Z,6.10
2023-04-08T20:47:06.886Z,6.10
2023-04-08T20:49:37.477Z,6.10
2023-04-08T20:52:06.470Z,6.10
2023-04-08T20:54:36.639Z,6.10
2023-04-08T20:57:05.474Z,6.10
2023-04-08T20:59:34.104Z,6.10
2023-04-08T21:02:03.630Z,6.00
2023-04-08T21:04:51.070Z,6.00
2023-04-08T21:07:19.734Z,6.00
2023-04-08T21:09:50.313Z,5.90
2023-04-08T21:12:19.195Z,5.90
2023-04-08T21:14:47.950Z,6.00
2023-04-08T21:17:16.749Z,5.90
2023-04-08T21:19:46.833Z,5.90
2023-04-08T21:22:16.444Z,6.00
2023-04-08T21:24:45.115Z,6.00
2023-04-08T21:27:15.529Z,5.90
2023-04-08T21:29:44.276Z,5.90
2023-04-08T21:32:13.143Z,5.90
2023-04-08T21:34:41.959Z,6.00
2023-04-08T21:37:10.726Z,5.90
2023-04-08T21:39:39.573Z,5.90
2023-04-08T21:42:08.305Z,5.90
2023-04-08T21:44:38.342Z,5.90
2023-04-08T21:47:07.052Z,5.90
2023-04-08T21:49:36.340Z,5.90
2023-04-08T21:52:05.085Z,5.80
2023-04-08T21:54:33.903Z,5.80
2023-04-08T21:57:02.749Z,5.70
2023-04-08T21:59:31.383Z,5.80
2023-04-08T22:02:02.330Z,5.80
2023-04-08T22:04:31.106Z,5.90
2023-04-08T22:06:59.972Z,5.80
2023-04-08T22:09:28.929Z,5.80
2023-04-08T22:11:57.964Z,5.80
2023-04-08T22:14:26.737Z,5.80
2023-04-08T22:16:55.621Z,5.90
2023-04-08T22:19:25.788Z,5.80
2023-04-08T22:21:54.516Z,5.90
2023-04-08T22:24:23.415Z,5.80
2023-04-08T22:26:54.192Z,5.70
2023-04-08T22:29:22.986Z,5.70
2023-04-08T22:31:52.675Z,5.80
2023-04-08T22:34:21.524Z,5.80
2023-04-08T22:36:51.645Z,5.70
2023-04-08T22:39:20.233Z,5.80
2023-04-08T22:41:48.886Z,5.80
2023-04-08T22:44:17.541Z,5.80
2023-04-08T22:46:46.162Z,5.80
2023-04-08T22:49:14.765Z,5.80
2023-04-08T22:51:43.410Z,5.80
2023-04-08T22:54:13.490Z,5.80
2023-04-08T22:56:42.164Z,5.80
2023-04-08T22:59:11.095Z,5.70
2023-04-08T23:01:41.718Z,5.70
2023-04-08T23:04:10.564Z,5.60
2023-04-08T23:06:39.340Z,5.60
2023-04-08T23:09:07.997Z,5.60
2023-04-08T23:11:38.045Z,5.50
2023-04-08T23:14:06.746Z,5.50
2023-04-08T23:16:35.881Z,5.50
2023-04-08T23:19:04.565Z,5.40
2023-04-08T23:21:33.283Z,5.50
2023-04-08T23:24:02.002Z,5.50
2023-04-08T23:26:30.666Z,5.50
2023-04-08T23:29:00.752Z,5.50
2023-04-08T23:31:29.474Z,5.60
2023-04-08T23:33:58.225Z,5.60
2023-04-08T23:36:27.650Z,5.70
2023-04-08T23:38:56.325Z,5.70
2023-04-08T23:41:24.950Z,5.70
2023-04-08T23:43:53.768Z,5.70
2023-04-08T23:46:23.878Z,5.70
2023-04-08T23:48:52.883Z,5.70
2023-04-08T23:51:21.768Z,5.70
2023-04-08T23:53:52.020Z,5.60
2023-04-08T23:56:20.762Z,5.60
2023-04-08T23:58:49.532Z,5.60
